Latest Weather Observations for Moruya Airport

IDN60901

Issued at 6:31 pm EST Monday 10 August 2020 (issued every 10 minutes, with the page automatically refreshed every 10 minutes)

About weather observations | Map of Canberra area stations | Latest observations for Canberra area | Other Formats
Station Details ID: 069148 Name: MORUYA AIRPORT AWS Lat: -35.90 Lon: 150.14 Height: 4.0 m
Data from the previous 72 hours. | See also: Recent months at Moruya Airport
Date/Time
EST
Temp
°C
App
Temp
°C
Dew
Point
°C
Rel
Hum
%
Delta-T
°C
Wind Press
QNH
hPa
Press
MSL
hPa
Rain since
9am
mm
Dir  Spd
km/h
Gust
km/h
Spd
kts
Gust
kts
10/06:30pm 12.0 8.5 5.6 65 3.0 SW 13 19 7 10 1022.0 1022.0 0.0
10/06:00pm 11.8 9.5 5.7 66 2.8 SW 7 9 4 5 1021.9 1021.9 0.0
10/05:30pm 12.4 8.5 5.3 62 3.3 SSW 15 19 8 10 1021.6 1021.6 0.0
10/05:00pm 12.7 8.0 5.1 60 3.5 S 19 32 10 17 1021.5 1021.5 0.0
10/04:30pm 13.0 8.7 5.4 60 3.5 S 17 22 9 12 1021.2 1021.2 0.0
10/04:00pm 13.3 8.9 5.0 57 3.8 SSW 17 20 9 11 1020.9 1020.9 0.0
10/03:30pm 13.5 9.2 5.4 58 3.8 SSW 17 24 9 13 1021.1 1021.1 0.0
10/03:00pm 13.7 9.5 5.6 58 3.8 SSW 17 24 9 13 1021.2 1021.2 0.0
10/02:30pm 13.7 9.0 5.1 56 4.0 SSW 19 24 10 13 1021.1 1021.1 0.0
10/02:00pm 13.6 8.8 5.7 59 3.7 SW 20 28 11 15 1021.1 1021.1 0.0
10/01:30pm 13.3 8.9 6.6 64 3.2 SW 19 28 10 15 1021.3 1021.3 0.0
10/01:00pm 13.4 7.2 6.3 62 3.4 SSW 28 39 15 21 1021.4 1021.4 0.0
10/12:30pm 13.7 7.5 6.1 60 3.6 SW 28 44 15 24 1021.4 1021.4 0.0
10/12:00pm 13.9 8.2 6.7 62 3.5 SSW 26 39 14 21 1021.5 1021.5 0.0
10/11:30am 13.9 8.6 6.7 62 3.5 SSW 24 32 13 17 1021.8 1021.8 0.0
10/11:00am 13.2 8.2 6.5 64 3.2 SSW 22 32 12 17 1021.8 1021.8 0.0
10/10:30am 12.6 7.5 6.0 64 3.1 SSW 22 32 12 17 1021.6 1021.6 0.0
10/10:00am 12.3 7.6 5.9 65 3.0 SW 20 32 11 17 1021.7 1021.7 0.0
10/09:30am 11.8 7.3 5.9 67 2.8 SSW 19 26 10 14 1021.6 1021.6 0.0
10/09:00am 11.9 6.0 5.8 66 2.8 SW 26 33 14 18 1021.0 1021.0 15.0
10/08:30am 11.6 6.1 6.1 69 2.6 SSW 24 37 13 20 1020.8 1020.8 15.0
10/08:00am 11.1 5.4 6.5 73 2.2 SSW 26 35 14 19 1020.4 1020.4 15.0
10/07:30am 10.7 4.6 6.8 77 1.8 SW 28 41 15 22 1019.8 1019.8 15.0
10/07:00am 10.4 5.2 7.3 81 1.5 SW 24 32 13 17 1019.3 1019.3 15.0
10/06:30am 10.1 5.5 8.0 87 1.0 SW 22 30 12 16 1019.1 1019.1 15.0
10/06:00am 10.2 4.4 8.1 87 1.0 SW 28 41 15 22 1018.7 1018.7 14.8
10/05:30am 10.0 5.1 8.3 89 0.8 SW 24 35 13 19 1018.2 1018.2 14.4
10/05:00am 10.3 5.6 9.1 92 0.6 SW 24 32 13 17 1018.1 1018.1 14.4
10/04:57am 10.3 5.9 9.1 92 0.6 SW 22 32 12 17 1018.1 1018.1 14.4
10/04:30am 10.6 6.7 9.4 92 0.6 SSW 20 28 11 15 1018.1 1018.1 14.2
10/04:28am 10.6 6.9 9.4 92 0.6 SSW 19 28 10 15 1018.1 1018.1 14.2
10/04:00am 10.8 6.4 9.1 89 0.8 SW 22 30 12 16 1017.8 1017.8 13.0
10/03:30am 11.3 6.3 8.2 81 1.5 SW 24 33 13 18 1017.6 1017.6 13.0
10/03:00am 12.2 7.0 7.1 71 2.4 SSW 24 37 13 20 1017.4 1017.4 13.0
10/02:30am 13.8 7.2 6.2 60 3.6 S 30 46 16 25 1017.0 1017.0 13.0
10/02:00am 13.7 6.7 6.8 63 3.3 S 33 43 18 23 1017.2 1017.2 13.0
10/01:30am 13.5 6.9 7.7 68 2.9 S 32 44 17 24 1017.2 1017.2 13.0
10/01:00am 13.7 7.2 8.1 69 2.8 S 32 46 17 25 1016.9 1016.9 13.0
10/12:30am 13.7 7.2 9.0 73 2.4 S 33 48 18 26 1016.7 1016.7 13.0
10/12:00am 13.5 6.9 10.1 80 1.8 S 35 46 19 25 1016.6 1016.6 13.0
 
Date/Time
EST
Temp
°C
App
Temp
°C
Dew
Point
°C
Rel
Hum
%
Delta-T
°C
Wind Press
QNH
hPa
Press
MSL
hPa
Rain since
9am
mm
Dir  Spd
km/h
Gust
km/h
Spd
kts
Gust
kts
09/11:31pm 12.6 7.2 10.8 89 0.9 S 30 48 16 26 1016.6 1016.6 12.8
09/11:30pm 12.7 6.9 10.9 89 0.9 S 32 48 17 26 1016.6 1016.6 12.8
09/11:18pm 12.8 7.0 10.7 87 1.1 S 32 52 17 28 1016.5 1016.5 12.2
09/11:02pm 12.8 7.7 10.7 87 1.1 S 28 46 15 25 1016.4 1016.4 11.4
09/11:00pm 13.0 7.5 10.5 85 1.3 S 30 46 16 25 1016.7 1016.7 11.2
09/10:53pm 13.7 7.4 9.7 77 2.1 S 33 52 18 28 1016.7 1016.7 10.6
09/10:30pm 14.8 7.6 7.6 62 3.6 SSE 35 52 19 28 1016.4 1016.4 10.6
09/10:02pm 14.8 6.5 7.6 62 3.6 SSE 41 59 22 32 1016.1 1016.1 10.6
09/10:00pm 14.9 6.6 7.7 62 3.6 SSE 41 57 22 31 1016.1 1016.1 10.6
09/09:30pm 14.8 7.2 9.2 69 2.9 SSE 39 59 21 32 1015.9 1015.9 10.6
09/09:05pm 13.0 7.0 10.0 82 1.5 S 32 50 17 27 1015.8 1015.8 10.6
09/09:00pm 13.1 6.6 10.3 83 1.4 SSE 35 52 19 28 1015.7 1015.7 10.6
09/08:37pm 13.2 6.1 9.6 79 1.8 SSE 37 56 20 30 1015.4 1015.4 10.4
09/08:30pm 13.1 5.9 10.5 84 1.4 SSE 39 54 21 29 1015.4 1015.4 10.2
09/08:21pm 13.0 6.2 10.7 86 1.2 SSE 37 54 20 29 1015.6 1015.6 10.0
09/08:09pm 13.2 7.3 10.4 83 1.5 SSE 32 44 17 24 1015.2 1015.2 9.6
09/08:00pm 12.5 6.2 11.1 91 0.7 SSE 35 48 19 26 1015.3 1015.3 9.6
09/07:58pm 12.4 5.7 11.0 91 0.7 SSE 37 56 20 30 1015.4 1015.4 9.6
09/07:32pm 12.4 4.4 10.5 88 1.0 SE 43 59 23 32 1015.4 1015.4 7.2
09/07:30pm 12.6 4.6 10.5 87 1.1 SE 43 59 23 32 1015.4 1015.4 6.6
09/07:28pm 12.9 5.4 10.8 87 1.1 SE 41 59 22 32 1015.3 1015.3 6.0
09/07:25pm 13.3 6.1 10.5 83 1.5 SSE 39 59 21 32 1015.2 1015.2 5.6
09/07:13pm 13.9 6.9 9.9 77 2.1 SSE 37 61 20 33 1014.6 1014.6 5.4
09/07:09pm 13.6 6.9 9.8 78 2.0 S 35 50 19 27 1014.6 1014.6 5.4
09/07:00pm 12.9 5.2 10.3 84 1.3 SSE 41 61 22 33 1014.6 1014.6 5.4
09/06:49pm 13.5 5.8 10.3 81 1.7 SSE 41 59 22 32 1014.7 1014.7 4.8
09/06:30pm 14.1 7.4 9.7 75 2.3 SSE 35 54 19 29 1014.2 1014.2 3.8
09/06:15pm 14.3 6.8 9.5 73 2.5 SSE 39 59 21 32 1014.2 1014.2 3.8
09/06:00pm 13.5 6.9 9.9 79 1.9 S 35 52 19 28 1014.1 1014.1 3.8
09/05:52pm 13.9 7.3 9.9 77 2.1 SSE 35 52 19 28 1013.8 1013.8 3.8
09/05:41pm 14.1 8.8 9.9 76 2.2 SE 28 48 15 26 1013.8 1013.8 3.8
09/05:30pm 13.5 8.5 10.9 84 1.4 SSE 28 39 15 21 1013.9 1013.9 3.8
09/05:25pm 13.2 7.7 10.6 84 1.4 S 30 48 16 26 1013.7 1013.7 3.8
09/05:00pm 12.7 7.6 10.6 87 1.1 S 28 37 15 20 1013.4 1013.4 3.2
09/04:30pm 13.5 6.9 10.1 80 1.8 SSE 35 54 19 29 1013.1 1013.1 2.8
09/04:08pm 12.7 7.8 11.3 91 0.7 S 28 39 15 21 1013.2 1013.2 2.8
09/04:00pm 12.5 7.6 11.2 92 0.7 SSE 28 43 15 23 1013.2 1013.2 2.8
09/03:49pm 12.8 7.9 11.4 91 0.7 SSE 28 43 15 23 1013.5 1013.5 2.4
09/03:30pm 13.3 7.6 9.9 80 1.7 SSE 30 41 16 22 1013.2 1013.2 1.6
09/03:07pm 14.6 8.3 9.8 73 2.5 SSE 33 52 18 28 1013.2 1013.2 1.6
09/03:00pm 14.5 7.7 9.1 70 2.8 SSE 35 52 19 28 1013.2 1013.2 1.6
09/02:30pm 15.2 9.6 8.9 66 3.2 SSE 28 41 15 22 1013.0 1013.0 1.6
09/02:00pm 14.1 8.8 8.5 69 2.8 SE 26 44 14 24 1013.1 1013.1 1.6
09/01:30pm 14.8 8.5 9.0 68 3.0 SSE 32 46 17 25 1013.3 1013.3 1.6
09/01:00pm 15.1 9.2 9.2 68 3.0 SE 30 39 16 21 1013.3 1013.3 1.6
09/12:30pm 15.0 9.1 9.1 68 3.0 SE 30 48 16 26 1013.4 1013.4 1.6
09/12:04pm 15.4 9.5 9.1 66 3.2 SE 30 48 16 26 1013.6 1013.6 1.6
09/12:00pm 15.1 8.8 9.0 67 3.1 SE 32 48 17 26 1013.6 1013.6 1.6
09/11:39am 15.0 9.3 9.8 71 2.7 SE 30 48 16 26 1013.9 1013.9 1.6
09/11:30am 14.9 9.2 9.7 71 2.7 SE 30 44 16 24 1014.0 1014.0 1.6
09/11:00am 14.5 8.8 9.7 73 2.5 SE 30 44 16 24 1014.2 1014.2 1.6
09/10:46am 14.4 7.9 10.2 76 2.2 SE 35 48 19 26 1014.2 1014.2 1.6
09/10:37am 13.4 7.8 10.0 80 1.8 SE 30 48 16 26 1014.3 1014.3 1.6
09/10:30am 12.9 6.9 10.8 87 1.1 SE 33 48 18 26 1014.4 1014.4 1.4
09/10:28am 13.0 6.6 10.7 86 1.2 SE 35 48 19 26 1014.5 1014.5 1.4
09/10:16am 13.5 7.5 10.9 84 1.4 SE 33 52 18 28 1014.4 1014.4 1.2
09/10:00am 13.7 7.2 10.3 80 1.8 SE 35 48 19 26 1014.4 1014.4 1.2
09/09:50am 13.9 7.9 10.7 81 1.7 SE 33 48 18 26 1014.3 1014.3 1.2
09/09:39am 13.2 7.4 10.7 85 1.3 SE 32 50 17 27 1014.4 1014.4 1.2
09/09:30am 13.1 7.2 11.2 88 1.0 SE 33 50 18 27 1014.6 1014.6 0.6
09/09:12am 13.2 7.1 10.6 84 1.4 ESE 33 48 18 26 1014.5 1014.5 0.2
09/09:00am 13.0 6.7 11.2 89 0.9 ESE 35 52 19 28 1014.5 1014.5 51.4
09/08:58am 12.9 7.1 11.5 91 0.7 ESE 33 52 18 28 1014.5 1014.5 51.4
09/08:49am 13.1 6.8 11.2 88 1.0 ESE 35 52 19 28 1014.5 1014.5 50.8
09/08:44am 13.6 7.6 10.8 83 1.5 SE 33 50 18 27 1014.2 1014.2 50.2
09/08:31am 13.1 6.4 11.0 87 1.1 ESE 37 56 20 30 1014.2 1014.2 50.2
09/08:30am 13.3 6.3 11.4 88 1.0 ESE 39 56 21 30 1014.2 1014.2 50.2
09/08:17am 13.7 7.8 11.2 85 1.3 SE 33 52 18 28 1013.9 1013.9 49.8
09/08:15am 13.6 7.3 11.1 85 1.3 SE 35 52 19 28 1013.9 1013.9 49.8
09/08:00am 13.0 6.8 11.4 90 0.8 ESE 35 50 19 27 1014.1 1014.1 49.4
09/07:43am 13.2 6.6 11.3 88 1.0 ESE 37 50 20 27 1013.9 1013.9 48.2
09/07:35am 13.7 7.2 11.6 87 1.1 SE 37 54 20 29 1013.7 1013.7 47.6
09/07:32am 13.6 7.4 11.3 86 1.2 ESE 35 54 19 29 1013.7 1013.7 47.6
09/07:30am 13.4 6.7 10.9 85 1.3 ESE 37 54 20 29 1013.7 1013.7 47.6
09/07:15am 12.6 6.9 11.0 90 0.8 SE 32 50 17 27 1013.7 1013.7 47.0
09/07:00am 13.1 7.9 11.5 90 0.8 SE 30 44 16 24 1013.6 1013.6 45.4
09/06:30am 12.9 7.3 11.5 91 0.7 SE 32 46 17 25 1013.6 1013.6 43.4
09/06:19am 13.3 7.0 11.0 86 1.2 SE 35 59 19 32 1013.4 1013.4 41.4
09/06:11am 13.3 7.3 10.8 85 1.3 SE 33 48 18 26 1013.2 1013.2 40.8
09/06:00am 13.3 7.5 11.5 89 1.0 ESE 33 46 18 25 1013.0 1013.0 40.4
09/05:53am 13.3 7.7 11.4 88 1.0 SE 32 46 17 25 1012.9 1012.9 40.0
09/05:49am 13.7 8.0 11.2 85 1.3 SE 32 46 17 25 1012.9 1012.9 39.8
09/05:30am 13.2 6.8 10.6 84 1.4 ESE 35 50 19 27 1012.8 1012.8 39.0
09/05:21am 14.0 8.4 10.2 78 2.0 SE 30 50 16 27 1012.7 1012.7 38.0
09/05:00am 12.6 7.4 10.1 85 1.3 S 28 41 15 22 1012.5 1012.5 37.8
09/04:30am 13.2 8.5 9.3 77 2.0 SSE 24 37 13 20 1012.9 1012.9 37.0
09/04:01am 13.5 7.6 9.0 74 2.3 SE 30 48 16 26 1013.0 1013.0 36.4
09/04:00am 13.4 7.0 8.5 72 2.4 SE 32 48 17 26 1013.0 1013.0 36.4
09/03:30am 14.7 9.6 10.5 76 2.2 SE 28 41 15 22 1012.9 1012.9 36.0
09/03:00am 14.5 9.2 9.7 73 2.5 SE 28 44 15 24 1012.9 1012.9 36.0
09/02:40am 14.2 8.3 10.4 78 2.0 SE 32 50 17 27 1013.0 1013.0 36.0
09/02:35am 14.1 9.0 10.5 79 1.9 SE 28 50 15 27 1013.1 1013.1 36.0
09/02:30am 13.7 8.8 11.2 85 1.3 SE 28 41 15 22 1013.3 1013.3 36.0
09/02:21am 13.5 7.7 10.9 84 1.4 SE 32 50 17 27 1013.5 1013.5 35.4
09/02:18am 13.5 7.6 10.5 82 1.6 SE 32 50 17 27 1013.5 1013.5 35.0
09/02:00am 13.4 7.5 10.4 82 1.6 SSE 32 44 17 24 1013.6 1013.6 34.2
09/01:42am 13.7 8.8 11.4 86 1.2 SE 28 46 15 25 1013.7 1013.7 33.8
09/01:41am 13.7 8.4 11.4 86 1.2 SE 30 46 16 25 1013.7 1013.7 33.8
09/01:30am 13.7 8.9 11.6 87 1.1 SE 28 41 15 22 1013.8 1013.8 33.6
09/01:18am 13.4 8.9 11.3 87 1.1 SE 26 41 14 22 1013.9 1013.9 32.8
09/01:03am 13.3 8.5 11.5 89 1.0 SE 28 41 15 22 1013.9 1013.9 32.2
09/01:00am 13.3 8.5 11.5 89 1.0 SE 28 43 15 23 1014.0 1014.0 32.0
09/12:37am 13.2 8.4 11.6 90 0.9 SSE 28 46 15 25 1014.0 1014.0 30.4
09/12:30am 13.3 7.7 11.4 88 1.0 SE 32 46 17 25 1014.0 1014.0 29.8
09/12:00am 13.6 8.0 11.5 87 1.1 SE 32 50 17 27 1014.1 1014.1 27.6
 
Date/Time
EST
Temp
°C
App
Temp
°C
Dew
Point
°C
Rel
Hum
%
Delta-T
°C
Wind Press
QNH
hPa
Press
MSL
hPa
Rain since
9am
mm
Dir  Spd
km/h
Gust
km/h
Spd
kts
Gust
kts
08/11:47pm 13.7 9.0 11.9 89 1.0 SE 28 46 15 25 1014.0 1014.0 27.0
08/11:45pm 13.6 9.3 12.0 90 0.9 SE 26 39 14 21 1014.0 1014.0 26.8
08/11:40pm 13.4 8.6 11.6 89 1.0 SE 28 46 15 25 1014.1 1014.1 26.0
08/11:38pm 13.5 8.3 11.7 89 1.0 SE 30 46 16 25 1014.1 1014.1 26.0
08/11:30pm 13.4 8.6 11.6 89 1.0 SE 28 46 15 25 1014.1 1014.1 25.8
08/11:28pm 13.4 8.6 11.8 90 0.9 SE 28 46 15 25 1014.0 1014.0 25.8
08/11:17pm 13.4 9.0 11.8 90 0.9 SSE 26 46 14 25 1014.1 1014.1 25.0
08/11:09pm 13.6 8.8 11.5 87 1.1 SE 28 46 15 25 1014.2 1014.2 24.4
08/11:00pm 13.8 8.6 11.5 86 1.2 SE 30 41 16 22 1014.2 1014.2 24.4
08/10:30pm 13.6 8.8 11.5 87 1.1 SE 28 43 15 23 1014.2 1014.2 24.2
08/10:00pm 13.5 8.7 11.7 89 1.0 SE 28 50 15 27 1014.2 1014.2 23.8
08/09:59pm 13.5 8.7 11.7 89 1.0 SE 28 46 15 25 1014.3 1014.3 23.8
08/09:58pm 13.4 8.6 11.6 89 1.0 SE 28 46 15 25 1014.3 1014.3 23.8
08/09:30pm 13.3 9.0 11.9 91 0.7 SE 26 35 14 19 1014.3 1014.3 22.2
08/09:24pm 13.1 8.6 11.3 89 1.0 SE 26 35 14 19 1014.4 1014.4 21.6
08/09:04pm 13.4 8.5 11.3 87 1.1 ESE 28 39 15 21 1014.4 1014.4 20.8
08/09:00pm 13.5 8.3 11.7 89 1.0 ESE 30 41 16 22 1014.4 1014.4 20.6
08/08:44pm 13.8 9.2 12.4 91 0.8 SE 28 41 15 22 1014.4 1014.4 20.2
08/08:30pm 13.8 9.1 12.0 89 1.0 ESE 28 41 15 22 1014.3 1014.3 19.4
08/08:28pm 13.8 9.2 12.2 90 0.9 ESE 28 41 15 22 1014.3 1014.3 19.4
08/08:07pm 14.1 9.2 12.7 91 0.8 ESE 30 43 16 23 1014.3 1014.3 19.0
08/08:04pm 14.1 9.6 12.5 90 0.9 ESE 28 41 15 22 1014.3 1014.3 19.0
08/08:00pm 14.0 9.8 12.4 90 0.9 ESE 26 37 14 20 1014.2 1014.2 18.8
08/07:50pm 13.9 10.1 12.5 91 0.8 ESE 24 37 13 20 1014.2 1014.2 18.6
08/07:48pm 13.7 9.9 12.4 92 0.7 ESE 24 35 13 19 1014.2 1014.2 18.6
08/07:30pm 13.2 9.2 11.8 91 0.7 E 24 35 13 19 1014.3 1014.3 17.8
08/07:00pm 13.4 8.6 11.8 90 0.9 E 28 35 15 19 1014.2 1014.2 13.4
08/06:53pm 13.7 9.1 12.3 91 0.8 E 28 35 15 19 1014.2 1014.2 13.0
08/06:30pm 13.8 9.3 11.3 85 1.3 E 26 37 14 20 1014.3 1014.3 12.0
08/06:08pm 13.4 7.4 10.9 85 1.3 E 33 44 18 24 1014.2 1014.2 11.6
08/06:00pm 13.5 7.2 11.2 86 1.2 E 35 46 19 25 1014.2 1014.2 11.4
08/05:57pm 13.7 8.0 11.8 88 1.0 E 33 43 18 23 1014.2 1014.2 11.2
08/05:56pm 13.8 8.1 11.8 88 1.1 E 33 41 18 22 1014.2 1014.2 11.2
08/05:30pm 13.8 7.6 11.5 86 1.2 E 35 48 19 26 1013.9 1013.9 11.0
08/05:20pm 13.9 7.1 11.8 87 1.1 ENE 39 52 21 28 1013.9 1013.9 10.8
08/05:00pm 14.9 8.9 10.9 77 2.1 E 33 46 18 25 1013.6 1013.6 10.6
08/04:30pm 14.8 8.7 11.6 81 1.7 E 35 44 19 24 1013.6 1013.6 10.6
08/04:00pm 14.3 9.1 11.6 84 1.4 E 30 37 16 20 1013.6 1013.6 10.2
08/03:30pm 14.5 8.8 11.1 80 1.8 E 32 43 17 23 1013.6 1013.6 9.8
08/03:00pm 15.0 10.0 12.1 83 1.6 E 30 41 16 22 1013.6 1013.6 9.8
08/02:32pm 14.9 8.8 11.9 82 1.6 E 35 48 19 26 1013.6 1013.6 9.8
08/02:30pm 15.0 9.0 12.1 83 1.6 E 35 48 19 26 1013.7 1013.7 9.8
08/02:00pm 15.0 9.6 12.7 86 1.3 E 33 44 18 24 1013.5 1013.5 9.8
08/01:34pm 14.9 9.8 13.1 89 1.0 E 32 43 17 23 1013.8 1013.8 9.8
08/01:30pm 14.9 9.1 12.8 87 1.2 E 35 44 19 24 1013.8 1013.8 9.8
08/01:29pm 15.0 9.3 12.9 87 1.2 E 35 44 19 24 1013.8 1013.8 9.8
08/01:04pm 14.5 10.0 12.7 89 1.0 E 28 37 15 20 1014.2 1014.2 8.6
08/01:00pm 14.3 10.0 12.0 86 1.2 E 26 35 14 19 1014.3 1014.3 8.0
08/12:30pm 14.3 9.4 12.5 89 1.0 E 30 39 16 21 1014.8 1014.8 7.8
08/12:00pm 14.1 10.2 12.0 87 1.1 ESE 24 35 13 19 1015.1 1015.1 7.2
08/11:30am 14.2 9.4 11.7 85 1.3 E 28 35 15 19 1015.8 1015.8 6.8
08/11:00am 13.8 9.0 11.5 86 1.2 E 28 37 15 20 1016.5 1016.5 6.2
08/10:30am 13.5 8.9 10.9 84 1.4 E 26 35 14 19 1017.0 1017.0 5.0
08/10:21am 12.7 11.4 11.4 92 0.7 ESE 9 24 5 13 1017.2 1017.2 5.0
08/10:00am 13.0 10.3 11.7 92 0.7 ESE 17 24 9 13 1017.3 1017.3 4.4
08/09:30am 12.8 11.0 11.0 89 0.9 ENE 11 17 6 9 1017.5 1017.5 1.8
08/09:24am 13.3 11.3 11.5 89 1.0 ENE 13 22 7 12 1017.5 1017.5 1.4
08/09:15am 13.1 10.6 11.0 87 1.1 E 15 24 8 13 1017.5 1017.5 0.6
08/09:00am 12.9 10.5 11.5 91 0.7 ESE 15 24 8 13 1017.6 1017.6 27.0
08/08:55am 12.6 10.5 11.2 91 0.7 SSE 13 24 7 13 1017.7 1017.7 26.4
08/08:39am 12.6 11.8 11.0 90 0.8 SW 6 22 3 12 1017.7 1017.7 24.4
08/08:30am 12.4 10.6 10.8 90 0.8 SSE 11 17 6 9 1017.7 1017.7 23.8
08/08:08am 13.1 10.8 10.6 85 1.3 ESE 13 20 7 11 1017.8 1017.8 21.8
08/08:00am 13.0 10.1 9.8 81 1.6 ESE 15 26 8 14 1017.6 1017.6 21.0
08/07:30am 13.2 9.8 10.4 83 1.5 ESE 19 26 10 14 1017.5 1017.5 20.2
08/07:00am 13.4 9.8 9.8 79 1.8 ESE 19 26 10 14 1017.3 1017.3 19.6
08/06:30am 13.6 9.3 9.5 76 2.1 E 22 35 12 19 1017.3 1017.3 19.0
08/06:00am 13.9 9.9 9.1 73 2.4 E 20 30 11 16 1017.2 1017.2 18.6
08/05:30am 14.0 9.6 9.0 72 2.5 ESE 22 33 12 18 1017.0 1017.0 18.4
08/05:00am 14.3 10.5 9.7 74 2.4 ESE 20 28 11 15 1016.9 1016.9 17.8
08/04:30am 14.0 9.6 8.8 71 2.6 ESE 22 32 12 17 1016.9 1016.9 17.8
08/04:00am 13.4 10.1 9.5 77 2.0 ESE 17 26 9 14 1016.9 1016.9 17.8
08/03:30am 13.1 9.0 8.6 74 2.2 E 20 28 11 15 1017.2 1017.2 17.4
08/03:00am 12.8 8.1 9.3 79 1.8 E 24 33 13 18 1017.5 1017.5 17.2
08/02:30am 12.5 8.9 9.9 84 1.3 ENE 19 32 10 17 1018.0 1018.0 16.6
08/02:00am 12.7 8.0 9.2 79 1.8 E 24 30 13 16 1018.2 1018.2 16.2
08/01:30am 12.8 6.6 9.3 79 1.8 E 32 35 17 19 1018.6 1018.6 16.0
08/01:00am 13.1 7.3 9.5 79 1.8 E 30 39 16 21 1018.8 1018.8 15.4
08/12:30am 13.0 9.1 9.4 79 1.8 E 20 26 11 14 1019.0 1019.0 14.8
08/12:00am 12.1 8.4 9.5 84 1.3 ESE 19 26 10 14 1019.4 1019.4 14.4
 
Date/Time
EST
Temp
°C
App
Temp
°C
Dew
Point
°C
Rel
Hum
%
Delta-T
°C
Wind Press
QNH
hPa
Press
MSL
hPa
Rain since
9am
mm
Dir  Spd
km/h
Gust
km/h
Spd
kts
Gust
kts
07/11:30pm 12.7 7.2 9.0 78 1.9 ESE 28 39 15 21 1019.4 1019.4 13.2
07/11:00pm 13.2 9.3 9.6 79 1.8 ESE 20 30 11 16 1019.4 1019.4 13.0
07/10:45pm 12.4 10.1 10.3 87 1.1 NE 13 22 7 12 1019.6 1019.6 12.6
07/10:31pm 12.2 6.7 9.2 82 1.5 ENE 28 41 15 22 1019.7 1019.7 12.2
07/10:30pm 12.2 6.4 9.4 83 1.4 ENE 30 41 16 22 1019.8 1019.8 12.0
07/10:00pm 12.6 9.6 9.4 81 1.6 ESE 15 26 8 14 1019.8 1019.8 11.4
07/09:30pm 13.5 8.1 9.6 77 2.0 E 28 35 15 19 1019.9 1019.9 11.4
07/09:00pm 13.2 7.4 9.6 79 1.8 E 30 35 16 19 1019.9 1019.9 10.8
07/08:30pm 13.3 8.4 9.9 80 1.7 E 26 33 14 18 1019.5 1019.5 9.4
07/08:00pm 12.8 8.0 8.9 77 2.0 E 24 39 13 21 1019.4 1019.4 7.8
07/07:51pm 13.3 8.9 10.3 82 1.6 E 24 32 13 17 1019.3 1019.3 7.6
07/07:40pm 13.3 8.2 10.5 83 1.5 E 28 46 15 25 1019.4 1019.4 7.4
07/07:36pm 13.1 6.8 9.7 80 1.7 E 33 46 18 25 1019.4 1019.4 7.2
07/07:30pm 13.8 7.2 10.0 78 2.0 E 35 44 19 24 1019.2 1019.2 6.6
07/07:00pm 13.5 10.5 10.5 82 1.6 ESE 17 35 9 19 1018.9 1018.9 6.4

Latest Capital City Observations: Canberra | Sydney | Melbourne | Brisbane | Adelaide | Perth | Hobart | Darwin

Other formats

Comma delimited format used in spreadsheet applications
http://www.bom.gov.au/fwo/IDN60903/IDN60903.95937.axf

JavaScript Object Notation format (JSON) in row-major order
http://www.bom.gov.au/fwo/IDN60903/IDN60903.95937.json

Data quality

Most of these data are generated automatically and are frequently updated. Quality checks on data are not normally performed. It is possible for incorrect values to appear. Refer to information at About Latest Weather Observations and please check the disclaimer before using these data.